Time;durP1;ratioP1;P1;durP2;ratioP2;P2;SDS_P1;SDS_P2;PMS_P1;PMS_P2;Temp;Humidity;BMP_temperature;BMP_pressure;BME280_temperature;BME280_humidity;BME280_pressure;Samples;Min_cycle;Max_cycle;Signal;HPM_P1;HPM_P2
2022/10/12 00:01:15;;;;;;;3.70;0.90;;;19.40;87.20;;;;;;5050174;28;20013;-64
2022/10/12 00:03:44;;;;;;;8.30;1.27;;;19.40;86.90;;;;;;5050522;28;20083;-64
2022/10/12 00:06:15;;;;;;;4.65;1.20;;;19.40;86.60;;;;;;5050036;28;20032;-64
2022/10/12 00:08:45;;;;;;;3.33;0.90;;;19.40;86.50;;;;;;5048815;28;20495;-64
2022/10/12 00:11:19;;;;;;;6.05;1.20;;;19.40;86.20;;;;;;5048757;28;20033;-64
2022/10/12 00:13:48;;;;;;;4.30;1.30;;;19.50;86.10;;;;;;5049383;28;20033;-64
2022/10/12 00:16:17;;;;;;;2.83;0.95;;;19.50;86.00;;;;;;5055327;28;20017;-64
2022/10/12 00:18:53;;;;;;;4.97;1.15;;;19.50;86.00;;;;;;5069102;28;20029;-64
2022/10/12 00:21:23;;;;;;;5.05;1.20;;;19.50;85.90;;;;;;5053646;28;20029;-64
2022/10/12 00:23:52;;;;;;;3.92;1.23;;;19.50;85.90;;;;;;5050718;28;20395;-64
2022/10/12 00:26:22;;;;;;;4.32;1.10;;;19.50;85.80;;;;;;5052614;28;20034;-65
2022/10/12 00:28:56;;;;;;;4.40;1.30;;;19.50;85.90;;;;;;5053858;28;20024;-64
2022/10/12 00:31:26;;;;;;;4.07;1.20;;;19.50;86.30;;;;;;5051867;28;20040;-64
2022/10/12 00:33:54;;;;;;;5.40;1.42;;;19.50;86.70;;;;;;5052498;28;20024;-64
2022/10/12 00:36:26;;;;;;;3.83;1.00;;;19.50;87.00;;;;;;5071199;28;20541;-64
2022/10/12 00:38:55;;;;;;;6.47;1.30;;;19.50;87.40;;;;;;5055800;28;20037;-65
2022/10/12 00:41:27;;;;;;;4.30;1.08;;;19.50;87.80;;;;;;5073302;28;20072;-65
2022/10/12 00:43:56;;;;;;;3.47;1.08;;;19.40;88.00;;;;;;5073530;28;20020;-65
2022/10/12 00:46:31;;;;;;;4.18;1.00;;;19.50;88.00;;;;;;5073000;28;20364;-64
2022/10/12 00:49:18;;;;;;;3.78;1.15;;;19.50;88.10;;;;;;5072956;28;20487;-64
2022/10/12 00:51:59;;;;;;;7.47;1.10;;;19.40;88.60;;;;;;5054034;28;20035;-64
2022/10/12 00:54:32;;;;;;;4.85;1.25;;;19.40;88.80;;;;;;5053090;28;20108;-64
2022/10/12 00:57:04;;;;;;;2.90;1.05;;;19.40;88.20;;;;;;5052342;28;20060;-64
2022/10/12 00:59:45;;;;;;;5.80;1.23;;;19.40;88.60;;;;;;5051645;28;20111;-64
2022/10/12 01:02:14;;;;;;;5.20;1.20;;;19.40;88.90;;;;;;5052339;28;20044;-64
2022/10/12 01:04:43;;;;;;;2.78;1.00;;;19.40;89.10;;;;;;5054030;28;20029;-64
2022/10/12 01:07:12;;;;;;;4.05;1.20;;;19.40;89.00;;;;;;5052008;28;20029;-64
2022/10/12 01:09:41;;;;;;;3.58;0.95;;;19.50;89.10;;;;;;5052836;28;20025;-64
2022/10/12 01:12:10;;;;;;;4.50;1.15;;;19.50;89.20;;;;;;5053223;28;20032;-64
2022/10/12 01:14:39;;;;;;;5.22;1.13;;;19.50;89.20;;;;;;5052661;28;20824;-65
2022/10/12 01:17:34;;;;;;;2.75;0.90;;;19.50;89.20;;;;;;5052713;28;20029;-65
2022/10/12 01:20:20;;;;;;;4.68;1.50;;;19.60;89.00;;;;;;5070295;28;20024;-63
2022/10/12 01:23:17;;;;;;;5.93;1.00;;;19.50;88.50;;;;;;5073338;28;20162;-64
2022/10/12 01:26:29;;;;;;;4.15;1.00;;;19.50;88.00;;;;;;5073220;28;20056;-63
2022/10/12 01:29:15;;;;;;;4.20;0.95;;;19.50;87.50;;;;;;5072793;28;20028;-63
2022/10/12 01:31:48;;;;;;;3.10;0.90;;;19.50;87.20;;;;;;5072792;28;20070;-64
2022/10/12 01:34:40;;;;;;;4.15;1.00;;;19.50;87.10;;;;;;5071891;28;20029;-65
2022/10/12 01:37:20;;;;;;;4.13;1.20;;;19.50;86.90;;;;;;5072740;28;20155;-64
2022/10/12 01:39:56;;;;;;;5.82;1.38;;;19.50;86.80;;;;;;5071366;28;20547;-65
2022/10/12 01:42:33;;;;;;;3.72;1.10;;;19.50;86.70;;;;;;5070782;28;21080;-65
2022/10/12 01:45:16;;;;;;;3.97;1.00;;;19.50;86.40;;;;;;5070931;28;20111;-65
2022/10/12 01:47:51;;;;;;;4.30;1.00;;;19.50;86.10;;;;;;5068270;28;20120;-65
2022/10/12 01:50:22;;;;;;;4.65;1.08;;;19.50;85.90;;;;;;5051156;28;20025;-63
2022/10/12 01:53:33;;;;;;;4.68;1.40;;;19.50;85.60;;;;;;5052203;28;20033;-64
2022/10/12 01:56:17;;;;;;;5.55;1.20;;;19.60;85.10;;;;;;4971299;28;20038;-65
2022/10/12 01:59:27;;;;;;;5.03;1.33;;;19.60;84.90;;;;;;5050183;28;20036;-65
2022/10/12 02:02:06;;;;;;;4.30;1.15;;;19.60;84.60;;;;;;5021881;28;20041;-64
2022/10/12 02:04:53;;;;;;;5.95;1.48;;;19.60;84.50;;;;;;5051966;28;20492;-64
2022/10/12 02:07:42;;;;;;;3.63;1.10;;;19.60;84.20;;;;;;5051714;28;20076;-64
2022/10/12 02:10:23;;;;;;;7.32;1.48;;;19.70;84.00;;;;;;5051864;28;20384;-64
2022/10/12 02:12:54;;;;;;;4.45;1.35;;;19.70;83.90;;;;;;5050596;28;20067;-64
2022/10/12 02:15:25;;;;;;;5.55;1.20;;;19.70;83.80;;;;;;5062972;28;20032;-65
2022/10/12 02:17:54;;;;;;;4.57;1.30;;;19.70;83.70;;;;;;5071809;28;20383;-65
2022/10/12 02:20:24;;;;;;;6.60;1.90;;;19.70;83.50;;;;;;5070199;28;20086;-64
2022/10/12 02:22:54;;;;;;;3.50;1.20;;;19.70;83.40;;;;;;5071505;28;20075;-64
2022/10/12 02:25:26;;;;;;;6.70;1.50;;;19.70;83.30;;;;;;5071481;28;20016;-64
2022/10/12 02:28:08;;;;;;;6.25;1.40;;;19.70;83.30;;;;;;5070395;28;20028;-65
2022/10/12 02:30:48;;;;;;;4.65;1.10;;;19.70;83.30;;;;;;5053324;28;20033;-64
2022/10/12 02:33:44;;;;;;;3.88;1.10;;;19.70;83.00;;;;;;5050729;28;20471;-64
2022/10/12 02:36:23;;;;;;;5.63;1.48;;;19.70;82.90;;;;;;5050124;28;20028;-64
2022/10/12 02:39:15;;;;;;;5.13;1.60;;;19.70;82.80;;;;;;5050196;28;20039;-64
2022/10/12 02:41:48;;;;;;;7.38;1.30;;;19.70;82.80;;;;;;5051231;28;20199;-65
2022/10/12 02:44:23;;;;;;;6.03;1.30;;;19.70;82.90;;;;;;5050250;28;20086;-64
2022/10/12 02:46:55;;;;;;;6.10;1.52;;;19.70;82.90;;;;;;5050461;28;20033;-64
2022/10/12 02:49:26;;;;;;;6.13;1.30;;;19.70;82.70;;;;;;5049911;28;20187;-64
2022/10/12 02:51:56;;;;;;;5.75;1.20;;;19.70;82.60;;;;;;5051274;28;20303;-64
2022/10/12 02:54:24;;;;;;;3.25;1.13;;;19.70;82.70;;;;;;5033156;28;20021;-64
2022/10/12 02:56:52;;;;;;;6.30;1.40;;;19.70;82.60;;;;;;5049819;28;20048;-64
2022/10/12 02:59:20;;;;;;;6.18;1.27;;;19.70;82.50;;;;;;5059466;28;20029;-64
2022/10/12 03:01:49;;;;;;;5.68;1.15;;;19.70;83.10;;;;;;5069707;28;20036;-64
2022/10/12 03:04:17;;;;;;;5.80;1.58;;;19.70;82.40;;;;;;5071247;28;20464;-64
2022/10/12 03:06:46;;;;;;;4.07;1.00;;;19.80;82.20;;;;;;5071349;28;20393;-64
2022/10/12 03:09:14;;;;;;;7.55;1.50;;;19.70;82.10;;;;;;5070783;28;20020;-64
2022/10/12 03:11:45;;;;;;;4.15;1.20;;;19.80;82.20;;;;;;5070644;28;20033;-64
2022/10/12 03:14:15;;;;;;;5.05;1.17;;;19.70;82.00;;;;;;5068390;28;20029;-64
2022/10/12 03:16:45;;;;;;;5.63;1.30;;;19.80;82.00;;;;;;5055149;28;20036;-64
2022/10/12 03:19:13;;;;;;;6.15;1.30;;;19.80;81.90;;;;;;5049351;28;20383;-64
2022/10/12 03:21:42;;;;;;;6.57;1.20;;;19.80;82.50;;;;;;5049393;28;20041;-64
2022/10/12 03:24:10;;;;;;;6.75;1.10;;;19.80;81.90;;;;;;5050543;28;20028;-64
2022/10/12 03:26:38;;;;;;;4.38;1.08;;;19.80;82.10;;;;;;5065908;28;20379;-64
2022/10/12 03:29:08;;;;;;;4.93;1.10;;;19.80;82.10;;;;;;5050115;28;20024;-64
2022/10/12 03:31:36;;;;;;;5.38;1.20;;;19.80;82.10;;;;;;5065944;28;20348;-64
2022/10/12 03:34:04;;;;;;;5.55;1.00;;;19.80;82.10;;;;;;5065609;28;20115;-64
2022/10/12 03:36:33;;;;;;;5.90;1.17;;;19.80;82.00;;;;;;5050447;28;20025;-64
2022/10/12 03:39:01;;;;;;;3.40;1.00;;;19.80;81.90;;;;;;5050164;28;20067;-64
2022/10/12 03:41:29;;;;;;;5.82;1.20;;;19.80;81.70;;;;;;5050188;28;20510;-64
2022/10/12 03:43:57;;;;;;;6.72;1.33;;;19.80;81.60;;;;;;5050344;28;20025;-64
2022/10/12 03:46:26;;;;;;;4.22;1.25;;;19.80;81.60;;;;;;5049933;28;20021;-64
2022/10/12 03:48:54;;;;;;;5.00;1.00;;;19.80;81.70;;;;;;5070264;28;20111;-64
2022/10/12 03:51:22;;;;;;;5.93;1.38;;;19.80;81.60;;;;;;5068821;28;20107;-64
2022/10/12 03:53:50;;;;;;;3.92;1.08;;;19.80;81.50;;;;;;5070183;28;20075;-64
2022/10/12 03:56:19;;;;;;;4.65;1.05;;;19.80;81.50;;;;;;5068791;28;20108;-63
2022/10/12 03:58:47;;;;;;;3.25;1.10;;;19.70;81.40;;;;;;5073223;28;20016;-64
2022/10/12 04:01:15;;;;;;;5.45;1.15;;;19.70;81.40;;;;;;5054969;28;20463;-64
2022/10/12 04:03:43;;;;;;;6.25;1.25;;;19.80;81.50;;;;;;5059168;28;20035;-64
2022/10/12 04:06:11;;;;;;;4.95;1.42;;;19.80;81.40;;;;;;5073919;28;20032;-64
2022/10/12 04:08:40;;;;;;;6.00;1.20;;;19.80;81.00;;;;;;5074117;28;20471;-64
2022/10/12 04:11:09;;;;;;;4.75;1.13;;;19.80;80.80;;;;;;5074136;28;20421;-64
2022/10/12 04:13:37;;;;;;;6.78;1.33;;;19.80;80.50;;;;;;5056208;28;20028;-64
2022/10/12 04:16:07;;;;;;;6.47;1.10;;;19.80;80.20;;;;;;5072361;28;20501;-64
2022/10/12 04:18:35;;;;;;;3.85;1.00;;;19.80;80.20;;;;;;5055989;28;20069;-64
2022/10/12 04:21:09;;;;;;;4.88;1.50;;;19.80;80.00;;;;;;5058071;28;20451;-64
2022/10/12 04:23:37;;;;;;;4.75;1.10;;;19.80;79.70;;;;;;5053815;28;20388;-64
2022/10/12 04:26:06;;;;;;;4.40;1.10;;;19.80;79.60;;;;;;5054070;28;20519;-64
2022/10/12 04:28:34;;;;;;;4.78;1.27;;;19.80;79.60;;;;;;5053873;28;20498;-64
2022/10/12 04:31:02;;;;;;;4.85;0.90;;;19.80;79.70;;;;;;5053353;28;20037;-64
2022/10/12 04:33:31;;;;;;;6.70;1.27;;;19.80;79.90;;;;;;5053875;28;20036;-64
2022/10/12 04:35:59;;;;;;;7.57;1.48;;;19.80;79.90;;;;;;5069449;28;20463;-64
2022/10/12 04:38:27;;;;;;;5.00;1.20;;;19.80;80.00;;;;;;5072358;28;20048;-64
2022/10/12 04:40:56;;;;;;;5.05;1.13;;;19.80;80.20;;;;;;5073134;28;20385;-65
2022/10/12 04:43:24;;;;;;;4.45;1.10;;;19.80;80.30;;;;;;5072139;28;20043;-66
2022/10/12 04:45:59;;;;;;;5.38;1.30;;;19.80;80.50;;;;;;5073029;28;20020;-66
2022/10/12 04:48:28;;;;;;;3.95;0.82;;;19.80;80.70;;;;;;5073630;28;20035;-65
2022/10/12 04:50:56;;;;;;;6.57;1.00;;;19.80;81.10;;;;;;5073334;28;20127;-66
2022/10/12 04:53:25;;;;;;;8.05;1.30;;;19.90;81.30;;;;;;5063705;28;20025;-66
2022/10/12 04:55:53;;;;;;;4.75;1.33;;;19.90;81.30;;;;;;5073154;28;20047;-66
2022/10/12 04:58:21;;;;;;;5.32;1.10;;;19.90;81.40;;;;;;5071971;28;20036;-66
2022/10/12 05:00:49;;;;;;;3.65;1.10;;;19.80;81.60;;;;;;5073141;28;20028;-66
2022/10/12 05:03:18;;;;;;;5.43;1.20;;;19.90;81.70;;;;;;5073635;28;20036;-65
2022/10/12 05:05:46;;;;;;;4.70;1.20;;;19.90;81.80;;;;;;5073724;28;20389;-64
2022/10/12 05:08:15;;;;;;;5.75;1.17;;;19.90;81.70;;;;;;5059470;28;20025;-65
2022/10/12 05:10:45;;;;;;;4.25;1.40;;;19.90;81.70;;;;;;5051042;28;20125;-64
2022/10/12 05:13:14;;;;;;;5.85;1.40;;;19.90;81.70;;;;;;5051849;28;20025;-65
2022/10/12 05:15:43;;;;;;;4.13;1.02;;;19.90;81.50;;;;;;5051412;28;20025;-66
2022/10/12 05:18:12;;;;;;;6.38;1.40;;;19.90;81.00;;;;;;5051701;28;20033;-65
2022/10/12 05:20:40;;;;;;;6.80;1.20;;;19.90;80.80;;;;;;5052817;28;20028;-65
2022/10/12 05:23:12;;;;;;;4.45;1.13;;;19.90;80.50;;;;;;5064650;28;20620;-66
2022/10/12 05:25:41;;;;;;;3.95;0.88;;;19.90;80.40;;;;;;5072705;28;20491;-66
2022/10/12 05:28:09;;;;;;;5.35;1.33;;;19.90;80.10;;;;;;5071358;28;20028;-65
2022/10/12 05:30:39;;;;;;;5.85;1.27;;;19.90;79.80;;;;;;5070982;28;20021;-65
2022/10/12 05:33:07;;;;;;;5.15;1.10;;;19.90;79.70;;;;;;5071362;28;20052;-65
2022/10/12 05:35:35;;;;;;;5.35;1.08;;;19.90;79.30;;;;;;5071234;28;20051;-65
2022/10/12 05:38:03;;;;;;;3.67;1.30;;;19.90;78.90;;;;;;5063533;28;20052;-65
2022/10/12 05:40:31;;;;;;;5.60;1.20;;;19.90;78.70;;;;;;5071189;28;20027;-66
2022/10/12 05:42:59;;;;;;;4.38;1.10;;;19.90;78.70;;;;;;5072332;28;20028;-65
2022/10/12 05:45:28;;;;;;;4.63;1.02;;;19.90;78.80;;;;;;5072117;28;20024;-65
2022/10/12 05:47:56;;;;;;;6.82;1.10;;;19.90;78.80;;;;;;5070973;28;20540;-65
2022/10/12 05:50:24;;;;;;;6.25;1.25;;;19.90;78.70;;;;;;5071282;28;20075;-65
2022/10/12 05:52:52;;;;;;;4.82;1.55;;;19.90;78.90;;;;;;5069029;28;20029;-65
2022/10/12 05:55:21;;;;;;;6.03;1.65;;;19.90;78.70;;;;;;5050785;28;20021;-65
2022/10/12 05:57:49;;;;;;;5.28;1.38;;;19.90;78.60;;;;;;5052455;28;20021;-66
2022/10/12 06:00:18;;;;;;;6.72;1.77;;;19.90;78.40;;;;;;5052108;28;20017;-64
2022/10/12 06:02:50;;;;;;;4.70;1.35;;;19.90;78.20;;;;;;5050852;28;20403;-65
2022/10/12 06:05:19;;;;;;;4.85;1.10;;;19.90;78.30;;;;;;5052060;28;20025;-65
2022/10/12 06:07:47;;;;;;;5.20;1.50;;;19.80;78.20;;;;;;5056394;28;20028;-65
2022/10/12 06:10:16;;;;;;;6.40;1.17;;;19.90;78.40;;;;;;5070773;28;20050;-65
2022/10/12 06:12:44;;;;;;;3.58;1.30;;;19.80;78.30;;;;;;5070694;28;20472;-65
2022/10/12 06:15:12;;;;;;;7.10;1.10;;;19.90;78.30;;;;;;5070219;28;20050;-64
2022/10/12 06:17:40;;;;;;;7.50;1.50;;;19.90;78.20;;;;;;5070404;28;20029;-64
2022/10/12 06:20:09;;;;;;;4.55;1.20;;;19.90;78.00;;;;;;5071799;28;20511;-66
2022/10/12 06:22:38;;;;;;;6.43;1.25;;;19.90;77.80;;;;;;5070450;28;20418;-66
2022/10/12 06:25:06;;;;;;;5.68;1.35;;;19.80;77.50;;;;;;5062380;28;20543;-65
2022/10/12 06:27:34;;;;;;;6.22;1.90;;;19.80;77.40;;;;;;5051549;28;20024;-65
2022/10/12 06:30:04;;;;;;;6.28;1.30;;;19.90;77.40;;;;;;5051146;28;20078;-65
2022/10/12 06:32:32;;;;;;;4.63;1.40;;;19.80;77.10;;;;;;5050274;28;20033;-66
2022/10/12 06:35:00;;;;;;;4.88;1.25;;;19.80;77.00;;;;;;5051496;28;20029;-66
2022/10/12 06:37:28;;;;;;;8.10;1.60;;;19.80;77.20;;;;;;5051422;28;20443;-65
2022/10/12 06:39:57;;;;;;;6.75;1.60;;;19.90;77.50;;;;;;5060834;28;20472;-65
2022/10/12 06:42:25;;;;;;;7.07;1.38;;;19.80;77.90;;;;;;5071331;28;20106;-65
2022/10/12 06:44:54;;;;;;;8.52;1.30;;;19.80;78.10;;;;;;5052826;28;20402;-65
2022/10/12 06:47:22;;;;;;;6.70;1.52;;;19.80;78.40;;;;;;5071249;28;20031;-65
2022/10/12 06:49:50;;;;;;;5.90;1.30;;;19.80;78.40;;;;;;5071107;28;20029;-65
2022/10/12 06:52:18;;;;;;;4.78;1.10;;;19.80;78.40;;;;;;5053648;28;20074;-65
2022/10/12 06:54:46;;;;;;;6.43;1.40;;;19.80;78.50;;;;;;5059324;28;20025;-64
2022/10/12 06:57:14;;;;;;;6.00;1.30;;;19.80;78.60;;;;;;5050178;28;20025;-65
2022/10/12 06:59:43;;;;;;;7.20;1.70;;;19.80;78.60;;;;;;5050689;28;20033;-64
2022/10/12 07:02:11;;;;;;;6.38;1.50;;;19.80;78.40;;;;;;5050878;28;20040;-65
2022/10/12 07:04:40;;;;;;;6.15;1.40;;;19.80;78.40;;;;;;5050777;28;20017;-64
2022/10/12 07:07:08;;;;;;;7.57;1.48;;;19.80;78.50;;;;;;5049280;28;20118;-65
2022/10/12 07:09:37;;;;;;;5.45;1.27;;;19.80;78.60;;;;;;5061783;28;20035;-65
2022/10/12 07:12:05;;;;;;;5.53;1.38;;;19.80;78.60;;;;;;5070946;28;20071;-65
2022/10/12 07:14:33;;;;;;;5.88;1.38;;;19.70;78.80;;;;;;5070227;28;20379;-64
2022/10/12 07:17:01;;;;;;;5.82;1.42;;;19.70;78.80;;;;;;5070953;28;20051;-64
2022/10/12 07:19:30;;;;;;;4.82;1.20;;;19.70;78.80;;;;;;5069567;28;20030;-64
2022/10/12 07:21:58;;;;;;;7.53;1.60;;;19.80;78.80;;;;;;5052240;28;20047;-62
2022/10/12 07:24:35;;;;;;;5.50;1.33;;;19.80;78.70;;;;;;5060460;28;20021;-62
2022/10/12 07:27:08;;;;;;;6.85;1.20;;;19.80;78.90;;;;;;5066620;28;20111;-62
2022/10/12 07:29:38;;;;;;;6.82;1.40;;;19.80;78.90;;;;;;5065930;28;20025;-58
2022/10/12 07:32:07;;;;;;;5.88;1.30;;;19.80;78.90;;;;;;5068714;28;20475;-58
2022/10/12 07:34:35;;;;;;;6.60;1.40;;;19.80;78.80;;;;;;5069535;28;20024;-57
2022/10/12 07:37:03;;;;;;;8.75;1.40;;;19.80;79.10;;;;;;5069591;28;20032;-57
2022/10/12 07:39:32;;;;;;;7.65;1.95;;;19.80;79.50;;;;;;5069277;28;20573;-56
2022/10/12 07:42:00;;;;;;;11.73;1.65;;;19.80;79.90;;;;;;5069909;28;20105;-58
2022/10/12 07:44:32;;;;;;;4.35;1.20;;;19.80;80.20;;;;;;5056125;28;20094;-58
2022/10/12 07:47:00;;;;;;;7.80;1.45;;;19.80;80.90;;;;;;5053727;28;20038;-58
2022/10/12 07:49:28;;;;;;;7.65;1.92;;;19.80;81.30;;;;;;5052902;28;20104;-58
2022/10/12 07:51:57;;;;;;;5.70;1.60;;;19.80;81.50;;;;;;5041694;28;20025;-59
2022/10/12 07:54:25;;;;;;;7.38;1.52;;;19.80;81.30;;;;;;5034399;28;20056;-59
2022/10/12 07:56:53;;;;;;;9.20;1.50;;;19.80;81.60;;;;;;5065303;28;20400;-58
2022/10/12 07:59:21;;;;;;;11.02;1.65;;;19.80;81.70;;;;;;5031323;28;20068;-61
2022/10/12 08:01:50;;;;;;;8.07;1.58;;;19.80;82.00;;;;;;5036734;28;20032;-58
2022/10/12 08:04:18;;;;;;;12.65;2.63;;;19.80;82.30;;;;;;5065529;28;20435;-61
2022/10/12 08:06:46;;;;;;;5.53;1.25;;;19.80;82.70;;;;;;5047827;28;20021;-60
2022/10/12 08:09:14;;;;;;;9.45;1.67;;;19.90;82.60;;;;;;5045107;28;20037;-60
2022/10/12 08:11:43;;;;;;;7.65;1.45;;;19.90;82.60;;;;;;5048506;28;20132;-61
2022/10/12 08:14:15;;;;;;;8.70;1.50;;;19.90;82.30;;;;;;5035470;28;20096;-60
2022/10/12 08:16:44;;;;;;;5.82;1.77;;;19.90;82.10;;;;;;5045452;28;20091;-58
2022/10/12 08:19:13;;;;;;;5.00;1.45;;;19.90;81.80;;;;;;5049733;28;20120;-58
2022/10/12 08:21:41;;;;;;;6.32;1.60;;;19.90;81.70;;;;;;5038538;28;20037;-59
2022/10/12 08:24:13;;;;;;;6.70;1.73;;;19.90;81.50;;;;;;5040908;28;20025;-58
2022/10/12 08:26:41;;;;;;;5.68;1.60;;;19.90;81.50;;;;;;5039825;28;20029;-58
2022/10/12 08:29:10;;;;;;;9.43;1.88;;;19.90;81.50;;;;;;5044157;28;20029;-58
2022/10/12 08:31:39;;;;;;;7.60;1.30;;;19.90;81.60;;;;;;5046272;28;20037;-58
2022/10/12 08:34:08;;;;;;;7.28;1.90;;;19.80;81.50;;;;;;5033850;28;20022;-58
2022/10/12 08:36:37;;;;;;;7.70;1.48;;;19.80;81.60;;;;;;5044155;28;20029;-57
2022/10/12 08:39:05;;;;;;;9.00;1.70;;;19.80;81.70;;;;;;5028625;28;20401;-55
2022/10/12 08:41:44;;;;;;;7.75;1.48;;;19.80;82.00;;;;;;5032549;28;20098;-58
2022/10/12 08:44:25;;;;;;;8.38;2.20;;;19.80;81.80;;;;;;5040397;28;20041;-58
2022/10/12 08:47:04;;;;;;;5.45;1.63;;;19.80;81.80;;;;;;5055559;28;20029;-59
2022/10/12 08:49:34;;;;;;;8.77;1.80;;;19.80;81.90;;;;;;5050800;28;20028;-59
2022/10/12 08:52:10;;;;;;;10.80;1.60;;;19.70;82.00;;;;;;5034418;28;20037;-58
2022/10/12 08:54:44;;;;;;;7.32;1.98;;;19.70;81.90;;;;;;5043227;28;20108;-59
2022/10/12 08:57:18;;;;;;;6.70;1.42;;;19.70;81.80;;;;;;5046784;28;20040;-58
2022/10/12 08:59:47;;;;;;;8.93;1.70;;;19.80;82.00;;;;;;5052535;28;20025;-58
2022/10/12 09:02:53;;;;;;;9.40;1.70;;;19.80;82.00;;;;;;5041961;28;20095;-58
2022/10/12 09:05:40;;;;;;;10.32;1.60;;;19.70;82.60;;;;;;4990500;28;20497;-59
2022/10/12 09:08:30;;;;;;;7.72;1.40;;;19.70;82.10;;;;;;4991196;28;20056;-58
2022/10/12 09:11:25;;;;;;;7.95;1.58;;;19.70;82.00;;;;;;5025502;28;20056;-58
2022/10/12 09:14:15;;;;;;;10.55;1.60;;;19.70;82.10;;;;;;5033173;28;20033;-58
2022/10/12 09:16:46;;;;;;;9.55;1.50;;;19.70;82.20;;;;;;5035682;28;20060;-58
2022/10/12 09:19:34;;;;;;;8.10;1.55;;;19.70;82.20;;;;;;5043604;28;20159;-58
2022/10/12 09:22:04;;;;;;;6.10;1.40;;;19.70;82.30;;;;;;5049164;28;20414;-59
2022/10/12 09:24:38;;;;;;;9.32;1.90;;;19.70;82.40;;;;;;5032771;28;20408;-58
2022/10/12 09:27:15;;;;;;;9.25;1.58;;;19.70;82.50;;;;;;5037016;28;20033;-58
2022/10/12 09:29:50;;;;;;;8.68;1.92;;;19.70;82.60;;;;;;5036052;28;20037;-58
2022/10/12 09:32:25;;;;;;;4.25;1.30;;;19.70;82.60;;;;;;5038759;28;20063;-62
2022/10/12 09:34:54;;;;;;;10.93;1.40;;;19.70;82.70;;;;;;5061153;28;20025;-58
2022/10/12 09:37:24;;;;;;;6.85;1.40;;;19.70;82.80;;;;;;5041052;28;20024;-59
2022/10/12 09:39:53;;;;;;;7.78;1.90;;;19.70;82.90;;;;;;5051132;28;20033;-58
2022/10/12 09:42:21;;;;;;;8.65;1.40;;;19.70;82.80;;;;;;5043395;28;20055;-59
2022/10/12 09:45:09;;;;;;;7.05;1.42;;;19.70;82.90;;;;;;5046763;28;20086;-59
2022/10/12 09:47:38;;;;;;;8.13;1.40;;;19.70;82.90;;;;;;5051431;28;20796;-58
2022/10/12 09:50:07;;;;;;;7.68;1.52;;;19.70;82.90;;;;;;5052211;28;20082;-59
2022/10/12 09:52:36;;;;;;;8.27;1.30;;;19.70;82.80;;;;;;5052206;28;20058;-58
2022/10/12 09:55:26;;;;;;;11.65;1.90;;;19.70;82.90;;;;;;5050883;28;20025;-58
2022/10/12 09:57:58;;;;;;;5.22;1.40;;;19.70;82.80;;;;;;5049429;28;20100;-59
2022/10/12 10:00:31;;;;;;;6.80;1.42;;;19.70;82.90;;;;;;5045716;28;20028;-58
2022/10/12 10:03:00;;;;;;;6.97;1.70;;;19.70;82.80;;;;;;5036840;28;20506;-57
2022/10/12 10:05:29;;;;;;;6.47;1.67;;;19.70;82.80;;;;;;5052684;28;20162;-58
2022/10/12 10:08:21;;;;;;;6.60;1.50;;;19.70;83.00;;;;;;5038692;28;20033;-62
2022/10/12 10:10:55;;;;;;;9.60;1.98;;;19.70;83.20;;;;;;5033566;28;20071;-62
2022/10/12 10:13:29;;;;;;;7.20;1.35;;;19.70;83.30;;;;;;5050312;28;20024;-61
2022/10/12 10:16:07;;;;;;;10.52;1.85;;;19.70;83.50;;;;;;5053458;28;20036;-63
2022/10/12 10:18:47;;;;;;;12.10;2.25;;;19.80;84.20;;;;;;5037273;28;20039;-62
2022/10/12 10:21:31;;;;;;;20.13;4.18;;;19.80;84.30;;;;;;5059022;28;20067;-62
2022/10/12 10:24:04;;;;;;;11.02;2.83;;;19.80;84.90;;;;;;5066970;28;20120;-62
2022/10/12 10:27:01;;;;;;;9.65;2.30;;;19.80;85.30;;;;;;5066784;28;20028;-62
2022/10/12 10:29:39;;;;;;;12.52;2.17;;;19.80;84.10;;;;;;5064077;28;20487;-62
2022/10/12 10:32:27;;;;;;;12.85;2.90;;;19.80;83.60;;;;;;5066025;28;20114;-62
2022/10/12 10:35:14;;;;;;;8.57;1.90;;;19.80;83.50;;;;;;5030812;28;20160;-62
2022/10/12 10:38:02;;;;;;;9.25;1.55;;;19.80;83.30;;;;;;5071327;28;20081;-62
2022/10/12 10:40:33;;;;;;;9.82;2.13;;;19.80;83.30;;;;;;5071074;28;20017;-62
2022/10/12 10:43:28;;;;;;;11.07;2.00;;;19.80;83.10;;;;;;5067839;28;20033;-62
2022/10/12 10:46:03;;;;;;;6.22;1.88;;;19.80;83.10;;;;;;5050713;28;20448;-62
2022/10/12 10:49:11;;;;;;;12.70;1.73;;;19.80;82.80;;;;;;5034580;28;20029;-62
2022/10/12 10:51:55;;;;;;;6.05;1.58;;;19.70;82.60;;;;;;5031338;28;20090;-62
2022/10/12 10:54:24;;;;;;;7.38;1.73;;;19.70;82.30;;;;;;5046226;28;20571;-63
2022/10/12 10:57:06;;;;;;;7.25;1.63;;;19.70;82.30;;;;;;5045881;28;20029;-62
2022/10/12 10:59:43;;;;;;;12.77;2.20;;;19.70;82.50;;;;;;5050515;28;20047;-62
2022/10/12 11:02:22;;;;;;;8.15;1.73;;;19.70;82.50;;;;;;5049173;28;20431;-64
2022/10/12 11:04:59;;;;;;;5.97;1.58;;;19.70;82.60;;;;;;5046154;28;20491;-63
2022/10/12 11:07:36;;;;;;;8.05;1.70;;;19.70;82.20;;;;;;5056054;28;20037;-62
2022/10/12 11:10:18;;;;;;;7.00;1.45;;;19.70;81.80;;;;;;5035411;28;20492;-63
2022/10/12 11:12:50;;;;;;;7.20;1.30;;;19.70;81.70;;;;;;5049610;28;20093;-63
2022/10/12 11:15:57;;;;;;;6.35;1.75;;;19.70;81.70;;;;;;5050395;28;20032;-62
2022/10/12 11:18:52;;;;;;;5.70;1.30;;;19.70;81.80;;;;;;5010880;28;20037;-62
2022/10/12 11:21:45;;;;;;;4.57;1.17;;;19.70;81.80;;;;;;5037572;28;20021;-63
2022/10/12 11:24:28;;;;;;;6.55;1.60;;;19.70;81.80;;;;;;5030643;28;20547;-63
2022/10/12 11:27:06;;;;;;;5.70;1.40;;;19.80;81.80;;;;;;5030066;28;20052;-62
2022/10/12 11:29:36;;;;;;;5.63;2.10;;;19.80;81.70;;;;;;5029043;28;20029;-62
2022/10/12 11:32:32;;;;;;;7.13;1.55;;;19.80;81.70;;;;;;5039297;28;20371;-62
2022/10/12 11:35:04;;;;;;;7.20;1.40;;;19.80;81.60;;;;;;5047859;28;20036;-62
2022/10/12 11:37:37;;;;;;;5.18;1.08;;;19.80;81.60;;;;;;5046043;28;20116;-62
2022/10/12 11:40:19;;;;;;;6.32;1.50;;;19.80;81.50;;;;;;5030258;28;20024;-62
2022/10/12 11:42:49;;;;;;;3.95;1.30;;;19.80;81.40;;;;;;5028916;28;20091;-62
2022/10/12 11:45:33;;;;;;;7.20;1.30;;;19.80;81.10;;;;;;5045507;28;20026;-63
2022/10/12 11:48:17;;;;;;;6.10;1.33;;;19.80;80.90;;;;;;5045018;28;20033;-63
2022/10/12 11:50:48;;;;;;;7.53;1.40;;;19.80;80.90;;;;;;5050488;28;20104;-63
2022/10/12 11:53:38;;;;;;;4.43;1.17;;;19.80;80.80;;;;;;5032772;28;20057;-62
2022/10/12 11:56:14;;;;;;;3.90;1.20;;;19.80;80.80;;;;;;5047909;28;20086;-62
2022/10/12 11:58:44;;;;;;;5.80;1.30;;;19.80;80.70;;;;;;5045745;28;20032;-62
2022/10/12 12:01:47;;;;;;;5.03;1.20;;;19.80;80.60;;;;;;5041051;28;20025;-63
2022/10/12 12:04:29;;;;;;;6.60;1.40;;;19.80;80.70;;;;;;5054101;28;20033;-63
2022/10/12 12:07:17;;;;;;;7.72;1.40;;;19.80;80.60;;;;;;5064270;28;20060;-62
2022/10/12 12:09:45;;;;;;;7.32;1.42;;;19.80;80.50;;;;;;5048991;28;20079;-62
2022/10/12 12:12:26;;;;;;;7.43;1.10;;;19.80;80.40;;;;;;5043721;28;20021;-61
2022/10/12 12:14:54;;;;;;;6.45;1.20;;;19.80;80.60;;;;;;5042356;28;20039;-61
2022/10/12 12:17:24;;;;;;;6.50;1.40;;;19.80;80.80;;;;;;5047677;28;20022;-61
2022/10/12 12:19:54;;;;;;;7.25;1.50;;;19.80;80.90;;;;;;5048313;28;20032;-61
2022/10/12 12:22:27;;;;;;;5.97;1.40;;;19.80;80.50;;;;;;5046079;28;20052;-61
2022/10/12 12:25:04;;;;;;;8.88;1.50;;;19.80;80.30;;;;;;5049930;28;20499;-62
2022/10/12 12:27:54;;;;;;;4.40;1.20;;;19.80;80.10;;;;;;5036753;28;20107;-62
2022/10/12 12:30:31;;;;;;;7.68;1.27;;;19.80;80.00;;;;;;5033916;28;20488;-62
2022/10/12 12:33:02;;;;;;;7.10;1.15;;;19.80;79.80;;;;;;5038101;28;20028;-62
2022/10/12 12:35:37;;;;;;;6.43;1.40;;;19.80;79.70;;;;;;5060350;28;20107;-62
2022/10/12 12:38:27;;;;;;;6.57;1.40;;;19.70;79.60;;;;;;5052460;28;20036;-62
2022/10/12 12:41:09;;;;;;;6.90;1.38;;;19.70;79.50;;;;;;5050752;28;20049;-62
2022/10/12 12:44:00;;;;;;;4.43;1.02;;;19.70;79.30;;;;;;5033805;28;20396;-62
2022/10/12 12:46:56;;;;;;;5.40;1.10;;;19.70;79.40;;;;;;5036928;28;20027;-62
2022/10/12 12:49:48;;;;;;;4.72;1.23;;;19.70;79.40;;;;;;5053337;28;20021;-62
2022/10/12 12:52:33;;;;;;;4.80;1.20;;;19.70;79.40;;;;;;5052686;28;20545;-62
2022/10/12 12:55:48;;;;;;;6.15;1.10;;;19.60;79.60;;;;;;5033513;28;20029;-62
2022/10/12 12:58:57;;;;;;;5.47;1.20;;;19.70;79.80;;;;;;4990116;28;20393;-61
2022/10/12 13:01:33;;;;;;;5.80;1.10;;;19.60;79.60;;;;;;5004599;28;20037;-62
2022/10/12 13:04:24;;;;;;;4.82;1.10;;;19.60;79.90;;;;;;5051490;28;20033;-61
2022/10/12 13:07:21;;;;;;;8.35;1.25;;;19.60;80.10;;;;;;5047327;28;20033;-61
2022/10/12 13:10:06;;;;;;;4.70;1.10;;;19.60;80.10;;;;;;5033524;28;20036;-61
2022/10/12 13:12:57;;;;;;;5.72;1.27;;;19.60;80.10;;;;;;5060229;28;20513;-62
2022/10/12 13:15:41;;;;;;;5.10;1.20;;;19.60;80.30;;;;;;5047917;28;20531;-63
2022/10/12 13:18:47;;;;;;;6.32;1.30;;;19.60;80.20;;;;;;5032822;28;20117;-63
2022/10/12 13:21:38;;;;;;;5.63;1.50;;;19.60;80.40;;;;;;5045640;28;20025;-63
2022/10/12 13:24:19;;;;;;;7.10;1.55;;;19.60;80.50;;;;;;5043389;28;20083;-62